sensor_id;sensor_type;location;lat;lon;timestamp;P1;durP1;ratioP1;P2;durP2;ratioP2
47555;SDS011;33291;46.222;26.460;2023-07-30T00:01:53;3.00;;;2.10;;
47555;SDS011;33291;46.222;26.460;2023-07-30T00:04:19;6.07;;;1.90;;
47555;SDS011;33291;46.222;26.460;2023-07-30T00:06:44;3.72;;;2.25;;
47555;SDS011;33291;46.222;26.460;2023-07-30T00:09:10;2.92;;;2.35;;
47555;SDS011;33291;46.222;26.460;2023-07-30T00:11:35;10.75;;;2.83;;
47555;SDS011;33291;46.222;26.460;2023-07-30T00:14:00;5.10;;;2.22;;
47555;SDS011;33291;46.222;26.460;2023-07-30T00:16:26;5.93;;;2.45;;
47555;SDS011;33291;46.222;26.460;2023-07-30T00:18:52;4.78;;;2.30;;
47555;SDS011;33291;46.222;26.460;2023-07-30T00:21:17;2.85;;;2.33;;
47555;SDS011;33291;46.222;26.460;2023-07-30T00:23:43;2.80;;;2.28;;
47555;SDS011;33291;46.222;26.460;2023-07-30T00:26:08;3.45;;;2.08;;
47555;SDS011;33291;46.222;26.460;2023-07-30T00:28:34;4.40;;;2.40;;
47555;SDS011;33291;46.222;26.460;2023-07-30T00:30:59;8.40;;;2.65;;
47555;SDS011;33291;46.222;26.460;2023-07-30T00:33:24;5.15;;;2.63;;
47555;SDS011;33291;46.222;26.460;2023-07-30T00:35:51;3.05;;;2.40;;
47555;SDS011;33291;46.222;26.460;2023-07-30T00:38:17;4.93;;;2.80;;
47555;SDS011;33291;46.222;26.460;2023-07-30T00:40:43;5.53;;;2.70;;
47555;SDS011;33291;46.222;26.460;2023-07-30T00:43:09;2.83;;;2.00;;
47555;SDS011;33291;46.222;26.460;2023-07-30T00:45:35;3.22;;;2.47;;
47555;SDS011;33291;46.222;26.460;2023-07-30T00:48:01;3.85;;;2.50;;
47555;SDS011;33291;46.222;26.460;2023-07-30T00:50:27;4.10;;;2.60;;
47555;SDS011;33291;46.222;26.460;2023-07-30T00:52:52;6.03;;;2.88;;
47555;SDS011;33291;46.222;26.460;2023-07-30T00:55:18;3.95;;;2.70;;
47555;SDS011;33291;46.222;26.460;2023-07-30T00:57:43;5.07;;;2.97;;
47555;SDS011;33291;46.222;26.460;2023-07-30T01:00:10;3.42;;;2.67;;
47555;SDS011;33291;46.222;26.460;2023-07-30T01:02:37;3.55;;;2.65;;
47555;SDS011;33291;46.222;26.460;2023-07-30T01:05:02;4.20;;;2.40;;
47555;SDS011;33291;46.222;26.460;2023-07-30T01:07:31;2.97;;;2.50;;
47555;SDS011;33291;46.222;26.460;2023-07-30T01:09:57;4.07;;;3.10;;
47555;SDS011;33291;46.222;26.460;2023-07-30T01:12:24;4.13;;;2.78;;
47555;SDS011;33291;46.222;26.460;2023-07-30T01:14:51;3.03;;;2.55;;
47555;SDS011;33291;46.222;26.460;2023-07-30T01:17:17;5.80;;;2.88;;
47555;SDS011;33291;46.222;26.460;2023-07-30T01:19:43;3.78;;;2.80;;
47555;SDS011;33291;46.222;26.460;2023-07-30T01:22:09;4.82;;;2.88;;
47555;SDS011;33291;46.222;26.460;2023-07-30T01:24:34;6.43;;;3.03;;
47555;SDS011;33291;46.222;26.460;2023-07-30T01:27:04;8.65;;;3.45;;
47555;SDS011;33291;46.222;26.460;2023-07-30T01:29:33;5.90;;;2.80;;
47555;SDS011;33291;46.222;26.460;2023-07-30T01:32:08;3.42;;;2.92;;
47555;SDS011;33291;46.222;26.460;2023-07-30T01:34:37;6.38;;;3.13;;
47555;SDS011;33291;46.222;26.460;2023-07-30T01:37:09;3.67;;;2.85;;
47555;SDS011;33291;46.222;26.460;2023-07-30T01:39:37;5.95;;;2.80;;
47555;SDS011;33291;46.222;26.460;2023-07-30T01:42:05;4.72;;;3.10;;
47555;SDS011;33291;46.222;26.460;2023-07-30T01:44:30;3.58;;;3.08;;
47555;SDS011;33291;46.222;26.460;2023-07-30T01:46:56;6.40;;;3.22;;
47555;SDS011;33291;46.222;26.460;2023-07-30T01:49:21;3.28;;;2.97;;
47555;SDS011;33291;46.222;26.460;2023-07-30T01:51:47;4.28;;;3.20;;
47555;SDS011;33291;46.222;26.460;2023-07-30T01:54:12;3.70;;;2.80;;
47555;SDS011;33291;46.222;26.460;2023-07-30T01:56:38;5.38;;;3.17;;
47555;SDS011;33291;46.222;26.460;2023-07-30T01:59:04;4.00;;;2.67;;
47555;SDS011;33291;46.222;26.460;2023-07-30T02:01:29;3.92;;;2.83;;
47555;SDS011;33291;46.222;26.460;2023-07-30T02:03:55;5.05;;;3.10;;
47555;SDS011;33291;46.222;26.460;2023-07-30T02:06:20;4.55;;;3.13;;
47555;SDS011;33291;46.222;26.460;2023-07-30T02:08:46;5.07;;;3.00;;
47555;SDS011;33291;46.222;26.460;2023-07-30T02:11:11;4.05;;;3.25;;
47555;SDS011;33291;46.222;26.460;2023-07-30T02:13:37;4.38;;;3.05;;
47555;SDS011;33291;46.222;26.460;2023-07-30T02:16:02;7.53;;;3.72;;
47555;SDS011;33291;46.222;26.460;2023-07-30T02:18:28;6.20;;;3.28;;
47555;SDS011;33291;46.222;26.460;2023-07-30T02:20:53;4.53;;;3.42;;
47555;SDS011;33291;46.222;26.460;2023-07-30T02:23:20;5.88;;;3.22;;
47555;SDS011;33291;46.222;26.460;2023-07-30T02:25:46;6.13;;;3.60;;
47555;SDS011;33291;46.222;26.460;2023-07-30T02:28:11;5.50;;;3.60;;
47555;SDS011;33291;46.222;26.460;2023-07-30T02:30:37;6.20;;;3.00;;
47555;SDS011;33291;46.222;26.460;2023-07-30T02:33:02;7.47;;;3.20;;
47555;SDS011;33291;46.222;26.460;2023-07-30T02:35:28;5.15;;;3.17;;
47555;SDS011;33291;46.222;26.460;2023-07-30T02:37:53;6.10;;;3.20;;
47555;SDS011;33291;46.222;26.460;2023-07-30T02:40:18;4.70;;;2.95;;
47555;SDS011;33291;46.222;26.460;2023-07-30T02:42:44;3.25;;;2.90;;
47555;SDS011;33291;46.222;26.460;2023-07-30T02:45:09;7.07;;;3.40;;
47555;SDS011;33291;46.222;26.460;2023-07-30T02:47:35;5.68;;;3.25;;
47555;SDS011;33291;46.222;26.460;2023-07-30T02:50:01;8.05;;;3.40;;
47555;SDS011;33291;46.222;26.460;2023-07-30T02:52:28;3.25;;;2.70;;
47555;SDS011;33291;46.222;26.460;2023-07-30T02:54:54;8.00;;;3.28;;
47555;SDS011;33291;46.222;26.460;2023-07-30T02:57:19;5.75;;;3.10;;
47555;SDS011;33291;46.222;26.460;2023-07-30T02:59:44;5.50;;;3.22;;
47555;SDS011;33291;46.222;26.460;2023-07-30T03:02:10;3.10;;;2.70;;
47555;SDS011;33291;46.222;26.460;2023-07-30T03:04:35;3.67;;;3.28;;
47555;SDS011;33291;46.222;26.460;2023-07-30T03:07:01;4.03;;;2.83;;
47555;SDS011;33291;46.222;26.460;2023-07-30T03:09:27;3.58;;;3.10;;
47555;SDS011;33291;46.222;26.460;2023-07-30T03:11:52;8.15;;;3.28;;
47555;SDS011;33291;46.222;26.460;2023-07-30T03:14:18;3.70;;;2.80;;
47555;SDS011;33291;46.222;26.460;2023-07-30T03:16:46;5.78;;;2.88;;
47555;SDS011;33291;46.222;26.460;2023-07-30T03:19:12;7.65;;;3.25;;
47555;SDS011;33291;46.222;26.460;2023-07-30T03:21:37;7.28;;;3.33;;
47555;SDS011;33291;46.222;26.460;2023-07-30T03:24:03;8.25;;;3.55;;
47555;SDS011;33291;46.222;26.460;2023-07-30T03:26:28;4.25;;;3.42;;
47555;SDS011;33291;46.222;26.460;2023-07-30T03:28:54;3.90;;;3.28;;
47555;SDS011;33291;46.222;26.460;2023-07-30T03:31:19;4.45;;;2.95;;
47555;SDS011;33291;46.222;26.460;2023-07-30T03:33:45;4.72;;;3.40;;
47555;SDS011;33291;46.222;26.460;2023-07-30T03:36:11;3.50;;;3.20;;
47555;SDS011;33291;46.222;26.460;2023-07-30T03:38:38;4.43;;;3.28;;
47555;SDS011;33291;46.222;26.460;2023-07-30T03:41:04;4.38;;;3.08;;
47555;SDS011;33291;46.222;26.460;2023-07-30T03:43:31;7.22;;;3.38;;
47555;SDS011;33291;46.222;26.460;2023-07-30T03:45:57;5.95;;;3.20;;
47555;SDS011;33291;46.222;26.460;2023-07-30T03:48:22;3.75;;;3.20;;
47555;SDS011;33291;46.222;26.460;2023-07-30T03:50:47;4.53;;;3.08;;
47555;SDS011;33291;46.222;26.460;2023-07-30T03:53:13;5.05;;;3.15;;
47555;SDS011;33291;46.222;26.460;2023-07-30T03:55:38;3.95;;;3.40;;
47555;SDS011;33291;46.222;26.460;2023-07-30T03:58:04;4.07;;;3.00;;
47555;SDS011;33291;46.222;26.460;2023-07-30T04:00:30;4.47;;;3.15;;
47555;SDS011;33291;46.222;26.460;2023-07-30T04:02:55;5.10;;;3.38;;
47555;SDS011;33291;46.222;26.460;2023-07-30T04:05:21;4.45;;;3.20;;
47555;SDS011;33291;46.222;26.460;2023-07-30T04:07:46;6.68;;;2.85;;
47555;SDS011;33291;46.222;26.460;2023-07-30T04:10:12;6.70;;;3.13;;
47555;SDS011;33291;46.222;26.460;2023-07-30T04:12:37;4.72;;;2.97;;
47555;SDS011;33291;46.222;26.460;2023-07-30T04:15:03;4.00;;;2.88;;
47555;SDS011;33291;46.222;26.460;2023-07-30T04:17:28;5.65;;;3.60;;
47555;SDS011;33291;46.222;26.460;2023-07-30T04:19:54;4.65;;;3.42;;
47555;SDS011;33291;46.222;26.460;2023-07-30T04:22:19;4.07;;;3.40;;
47555;SDS011;33291;46.222;26.460;2023-07-30T04:24:45;9.35;;;3.20;;
47555;SDS011;33291;46.222;26.460;2023-07-30T04:27:10;4.10;;;3.00;;
47555;SDS011;33291;46.222;26.460;2023-07-30T04:29:36;4.25;;;2.78;;
47555;SDS011;33291;46.222;26.460;2023-07-30T04:32:01;4.70;;;3.20;;
47555;SDS011;33291;46.222;26.460;2023-07-30T04:34:27;5.53;;;3.58;;
47555;SDS011;33291;46.222;26.460;2023-07-30T04:36:52;4.93;;;2.70;;
47555;SDS011;33291;46.222;26.460;2023-07-30T04:39:17;5.18;;;3.63;;
47555;SDS011;33291;46.222;26.460;2023-07-30T04:41:43;5.85;;;3.15;;
47555;SDS011;33291;46.222;26.460;2023-07-30T04:44:08;4.53;;;3.00;;
47555;SDS011;33291;46.222;26.460;2023-07-30T04:46:34;6.05;;;3.45;;
47555;SDS011;33291;46.222;26.460;2023-07-30T04:49:01;8.43;;;3.17;;
47555;SDS011;33291;46.222;26.460;2023-07-30T04:51:28;3.90;;;3.13;;
47555;SDS011;33291;46.222;26.460;2023-07-30T04:53:53;5.22;;;3.45;;
47555;SDS011;33291;46.222;26.460;2023-07-30T04:56:19;5.40;;;3.38;;
47555;SDS011;33291;46.222;26.460;2023-07-30T04:58:44;4.65;;;3.08;;
47555;SDS011;33291;46.222;26.460;2023-07-30T05:01:10;6.40;;;3.70;;
47555;SDS011;33291;46.222;26.460;2023-07-30T05:03:35;4.22;;;3.13;;
47555;SDS011;33291;46.222;26.460;2023-07-30T05:06:01;4.93;;;3.00;;
47555;SDS011;33291;46.222;26.460;2023-07-30T05:08:26;9.25;;;3.42;;
47555;SDS011;33291;46.222;26.460;2023-07-30T05:10:52;6.15;;;3.03;;
47555;SDS011;33291;46.222;26.460;2023-07-30T05:13:17;5.25;;;3.35;;
47555;SDS011;33291;46.222;26.460;2023-07-30T05:15:43;3.75;;;2.50;;
47555;SDS011;33291;46.222;26.460;2023-07-30T05:18:08;4.80;;;3.22;;
47555;SDS011;33291;46.222;26.460;2023-07-30T05:20:33;5.80;;;3.03;;
47555;SDS011;33291;46.222;26.460;2023-07-30T05:22:59;3.67;;;3.13;;
47555;SDS011;33291;46.222;26.460;2023-07-30T05:25:24;4.68;;;3.10;;
47555;SDS011;33291;46.222;26.460;2023-07-30T05:27:50;3.58;;;3.10;;
47555;SDS011;33291;46.222;26.460;2023-07-30T05:30:15;4.32;;;3.00;;
47555;SDS011;33291;46.222;26.460;2023-07-30T05:32:41;5.43;;;3.03;;
47555;SDS011;33291;46.222;26.460;2023-07-30T05:35:06;16.67;;;3.72;;
47555;SDS011;33291;46.222;26.460;2023-07-30T05:37:32;5.55;;;3.30;;
47555;SDS011;33291;46.222;26.460;2023-07-30T05:39:57;5.57;;;3.72;;
47555;SDS011;33291;46.222;26.460;2023-07-30T05:42:23;5.57;;;2.80;;
47555;SDS011;33291;46.222;26.460;2023-07-30T05:44:48;4.85;;;3.13;;
47555;SDS011;33291;46.222;26.460;2023-07-30T05:47:14;6.47;;;2.88;;
47555;SDS011;33291;46.222;26.460;2023-07-30T05:49:39;4.55;;;3.25;;
47555;SDS011;33291;46.222;26.460;2023-07-30T05:52:05;6.22;;;2.83;;
47555;SDS011;33291;46.222;26.460;2023-07-30T05:54:30;6.15;;;3.33;;
47555;SDS011;33291;46.222;26.460;2023-07-30T05:56:56;8.32;;;3.20;;
47555;SDS011;33291;46.222;26.460;2023-07-30T05:59:21;8.52;;;2.92;;
47555;SDS011;33291;46.222;26.460;2023-07-30T06:01:47;5.97;;;3.17;;
47555;SDS011;33291;46.222;26.460;2023-07-30T06:04:12;7.57;;;3.42;;
47555;SDS011;33291;46.222;26.460;2023-07-30T06:06:38;4.18;;;2.60;;
47555;SDS011;33291;46.222;26.460;2023-07-30T06:09:03;5.28;;;3.42;;
47555;SDS011;33291;46.222;26.460;2023-07-30T06:11:29;4.28;;;3.25;;
47555;SDS011;33291;46.222;26.460;2023-07-30T06:13:55;3.63;;;3.08;;
47555;SDS011;33291;46.222;26.460;2023-07-30T06:16:20;7.05;;;2.72;;
47555;SDS011;33291;46.222;26.460;2023-07-30T06:18:46;4.35;;;2.88;;
47555;SDS011;33291;46.222;26.460;2023-07-30T06:21:12;3.75;;;2.75;;
47555;SDS011;33291;46.222;26.460;2023-07-30T06:23:38;3.47;;;2.83;;
47555;SDS011;33291;46.222;26.460;2023-07-30T06:26:03;4.43;;;3.22;;
47555;SDS011;33291;46.222;26.460;2023-07-30T06:28:29;6.05;;;2.85;;
47555;SDS011;33291;46.222;26.460;2023-07-30T06:30:54;5.32;;;3.08;;
47555;SDS011;33291;46.222;26.460;2023-07-30T06:33:20;9.02;;;3.03;;
47555;SDS011;33291;46.222;26.460;2023-07-30T06:35:45;5.15;;;2.78;;
47555;SDS011;33291;46.222;26.460;2023-07-30T06:38:11;6.18;;;3.70;;
47555;SDS011;33291;46.222;26.460;2023-07-30T06:40:36;9.63;;;2.90;;
47555;SDS011;33291;46.222;26.460;2023-07-30T06:43:01;4.72;;;2.67;;
47555;SDS011;33291;46.222;26.460;2023-07-30T06:45:27;4.95;;;2.75;;
47555;SDS011;33291;46.222;26.460;2023-07-30T06:47:53;4.03;;;2.97;;
47555;SDS011;33291;46.222;26.460;2023-07-30T06:50:18;5.68;;;2.65;;
47555;SDS011;33291;46.222;26.460;2023-07-30T06:52:44;7.13;;;3.10;;
47555;SDS011;33291;46.222;26.460;2023-07-30T06:55:09;7.60;;;3.67;;
47555;SDS011;33291;46.222;26.460;2023-07-30T06:57:35;7.00;;;3.03;;
47555;SDS011;33291;46.222;26.460;2023-07-30T07:00:01;3.78;;;2.60;;
47555;SDS011;33291;46.222;26.460;2023-07-30T07:02:27;5.35;;;3.13;;
47555;SDS011;33291;46.222;26.460;2023-07-30T07:04:53;3.08;;;2.30;;
47555;SDS011;33291;46.222;26.460;2023-07-30T07:07:20;2.92;;;2.50;;
47555;SDS011;33291;46.222;26.460;2023-07-30T07:09:45;4.63;;;2.78;;
47555;SDS011;33291;46.222;26.460;2023-07-30T07:12:11;5.22;;;2.92;;
47555;SDS011;33291;46.222;26.460;2023-07-30T07:14:37;4.82;;;3.22;;
47555;SDS011;33291;46.222;26.460;2023-07-30T07:17:02;5.65;;;2.90;;
47555;SDS011;33291;46.222;26.460;2023-07-30T07:19:28;5.90;;;3.13;;
47555;SDS011;33291;46.222;26.460;2023-07-30T07:21:53;3.33;;;2.63;;
47555;SDS011;33291;46.222;26.460;2023-07-30T07:24:19;5.28;;;3.13;;
47555;SDS011;33291;46.222;26.460;2023-07-30T07:26:44;5.38;;;3.15;;
47555;SDS011;33291;46.222;26.460;2023-07-30T07:29:10;6.05;;;3.35;;
47555;SDS011;33291;46.222;26.460;2023-07-30T07:31:35;4.40;;;2.80;;
47555;SDS011;33291;46.222;26.460;2023-07-30T07:34:01;5.18;;;2.38;;
47555;SDS011;33291;46.222;26.460;2023-07-30T07:36:26;5.63;;;2.83;;
47555;SDS011;33291;46.222;26.460;2023-07-30T07:38:52;4.90;;;2.85;;
47555;SDS011;33291;46.222;26.460;2023-07-30T07:41:17;4.88;;;2.90;;
47555;SDS011;33291;46.222;26.460;2023-07-30T07:43:43;5.03;;;3.28;;
47555;SDS011;33291;46.222;26.460;2023-07-30T07:46:09;4.43;;;3.25;;
47555;SDS011;33291;46.222;26.460;2023-07-30T07:48:39;4.07;;;2.70;;
47555;SDS011;33291;46.222;26.460;2023-07-30T07:51:06;5.68;;;2.70;;
47555;SDS011;33291;46.222;26.460;2023-07-30T07:53:31;3.08;;;2.70;;
47555;SDS011;33291;46.222;26.460;2023-07-30T07:55:57;5.03;;;2.80;;
47555;SDS011;33291;46.222;26.460;2023-07-30T07:58:22;6.75;;;3.10;;
47555;SDS011;33291;46.222;26.460;2023-07-30T08:00:48;4.80;;;2.50;;
47555;SDS011;33291;46.222;26.460;2023-07-30T08:03:13;4.93;;;3.10;;
47555;SDS011;33291;46.222;26.460;2023-07-30T08:05:39;3.38;;;2.72;;
47555;SDS011;33291;46.222;26.460;2023-07-30T08:08:04;7.75;;;3.10;;
47555;SDS011;33291;46.222;26.460;2023-07-30T08:10:30;6.38;;;2.67;;
47555;SDS011;33291;46.222;26.460;2023-07-30T08:12:55;7.72;;;2.55;;
47555;SDS011;33291;46.222;26.460;2023-07-30T08:15:21;4.82;;;2.90;;
47555;SDS011;33291;46.222;26.460;2023-07-30T08:17:46;4.22;;;2.97;;
47555;SDS011;33291;46.222;26.460;2023-07-30T08:20:12;2.75;;;2.47;;
47555;SDS011;33291;46.222;26.460;2023-07-30T08:22:37;5.38;;;2.92;;
47555;SDS011;33291;46.222;26.460;2023-07-30T08:25:03;3.75;;;2.40;;
47555;SDS011;33291;46.222;26.460;2023-07-30T08:27:29;4.57;;;2.88;;
47555;SDS011;33291;46.222;26.460;2023-07-30T08:29:55;4.03;;;2.67;;
47555;SDS011;33291;46.222;26.460;2023-07-30T08:32:20;4.85;;;2.67;;
47555;SDS011;33291;46.222;26.460;2023-07-30T08:34:46;5.25;;;3.25;;
47555;SDS011;33291;46.222;26.460;2023-07-30T08:37:12;3.35;;;2.50;;
47555;SDS011;33291;46.222;26.460;2023-07-30T08:39:37;5.65;;;3.00;;
47555;SDS011;33291;46.222;26.460;2023-07-30T08:42:03;4.82;;;2.97;;
47555;SDS011;33291;46.222;26.460;2023-07-30T08:44:29;4.22;;;2.67;;
47555;SDS011;33291;46.222;26.460;2023-07-30T08:46:54;4.25;;;2.63;;
47555;SDS011;33291;46.222;26.460;2023-07-30T08:49:20;4.47;;;2.80;;
47555;SDS011;33291;46.222;26.460;2023-07-30T08:51:45;3.60;;;2.85;;
47555;SDS011;33291;46.222;26.460;2023-07-30T08:54:13;4.95;;;2.95;;
47555;SDS011;33291;46.222;26.460;2023-07-30T08:56:41;4.70;;;2.75;;
47555;SDS011;33291;46.222;26.460;2023-07-30T08:59:07;3.40;;;2.85;;
47555;SDS011;33291;46.222;26.460;2023-07-30T09:01:35;4.38;;;2.50;;
47555;SDS011;33291;46.222;26.460;2023-07-30T09:04:03;3.17;;;2.80;;
47555;SDS011;33291;46.222;26.460;2023-07-30T09:06:29;5.05;;;2.95;;
47555;SDS011;33291;46.222;26.460;2023-07-30T09:08:55;2.70;;;2.33;;
47555;SDS011;33291;46.222;26.460;2023-07-30T09:11:21;5.88;;;2.70;;
47555;SDS011;33291;46.222;26.460;2023-07-30T09:13:51;4.10;;;2.83;;
47555;SDS011;33291;46.222;26.460;2023-07-30T09:16:23;3.13;;;2.50;;
47555;SDS011;33291;46.222;26.460;2023-07-30T09:18:50;3.63;;;2.90;;
47555;SDS011;33291;46.222;26.460;2023-07-30T09:21:15;3.28;;;2.80;;
47555;SDS011;33291;46.222;26.460;2023-07-30T09:23:47;3.67;;;2.67;;
47555;SDS011;33291;46.222;26.460;2023-07-30T09:26:13;4.90;;;3.60;;
47555;SDS011;33291;46.222;26.460;2023-07-30T09:28:39;7.72;;;2.90;;
47555;SDS011;33291;46.222;26.460;2023-07-30T09:31:05;7.53;;;3.15;;
47555;SDS011;33291;46.222;26.460;2023-07-30T09:33:33;4.32;;;3.17;;
47555;SDS011;33291;46.222;26.460;2023-07-30T09:36:06;4.85;;;2.60;;
47555;SDS011;33291;46.222;26.460;2023-07-30T09:38:38;5.93;;;3.17;;
47555;SDS011;33291;46.222;26.460;2023-07-30T09:41:04;5.35;;;2.60;;
47555;SDS011;33291;46.222;26.460;2023-07-30T09:43:32;4.25;;;2.60;;
47555;SDS011;33291;46.222;26.460;2023-07-30T09:46:05;4.78;;;3.25;;
47555;SDS011;33291;46.222;26.460;2023-07-30T09:48:32;3.65;;;2.88;;
47555;SDS011;33291;46.222;26.460;2023-07-30T09:50:59;3.58;;;2.80;;
47555;SDS011;33291;46.222;26.460;2023-07-30T09:53:31;3.95;;;3.50;;
47555;SDS011;33291;46.222;26.460;2023-07-30T09:56:03;3.92;;;3.45;;
47555;SDS011;33291;46.222;26.460;2023-07-30T09:58:30;4.53;;;3.30;;
47555;SDS011;33291;46.222;26.460;2023-07-30T10:00:59;3.70;;;3.25;;
47555;SDS011;33291;46.222;26.460;2023-07-30T10:03:26;5.03;;;3.58;;
47555;SDS011;33291;46.222;26.460;2023-07-30T10:05:54;6.47;;;3.15;;
47555;SDS011;33291;46.222;26.460;2023-07-30T10:08:27;3.92;;;3.17;;
47555;SDS011;33291;46.222;26.460;2023-07-30T10:10:56;5.72;;;3.33;;
47555;SDS011;33291;46.222;26.460;2023-07-30T10:13:25;6.10;;;3.00;;
47555;SDS011;33291;46.222;26.460;2023-07-30T10:15:52;6.82;;;3.50;;
47555;SDS011;33291;46.222;26.460;2023-07-30T10:18:18;4.82;;;3.72;;
47555;SDS011;33291;46.222;26.460;2023-07-30T10:20:53;4.10;;;3.28;;
47555;SDS011;33291;46.222;26.460;2023-07-30T10:23:20;4.10;;;3.00;;
47555;SDS011;33291;46.222;26.460;2023-07-30T10:25:46;3.92;;;3.53;;
47555;SDS011;33291;46.222;26.460;2023-07-30T10:31:11;4.40;;;3.15;;
47555;SDS011;33291;46.222;26.460;2023-07-30T10:33:49;5.22;;;3.50;;
47555;SDS011;33291;46.222;26.460;2023-07-30T10:36:17;4.50;;;3.80;;
47555;SDS011;33291;46.222;26.460;2023-07-30T10:38:44;4.95;;;3.67;;
47555;SDS011;33291;46.222;26.460;2023-07-30T10:41:12;8.85;;;4.25;;
47555;SDS011;33291;46.222;26.460;2023-07-30T10:43:48;5.18;;;3.83;;
47555;SDS011;33291;46.222;26.460;2023-07-30T10:46:16;6.45;;;3.42;;
47555;SDS011;33291;46.222;26.460;2023-07-30T10:48:44;4.38;;;3.17;;
47555;SDS011;33291;46.222;26.460;2023-07-30T10:51:11;6.53;;;3.40;;
47555;SDS011;33291;46.222;26.460;2023-07-30T10:53:38;6.63;;;3.40;;
47555;SDS011;33291;46.222;26.460;2023-07-30T10:56:04;5.05;;;3.90;;
47555;SDS011;33291;46.222;26.460;2023-07-30T10:58:32;5.10;;;3.08;;
47555;SDS011;33291;46.222;26.460;2023-07-30T11:00:59;4.68;;;3.47;;
47555;SDS011;33291;46.222;26.460;2023-07-30T11:03:26;7.40;;;3.47;;
47555;SDS011;33291;46.222;26.460;2023-07-30T11:05:53;4.63;;;3.63;;
47555;SDS011;33291;46.222;26.460;2023-07-30T11:08:21;5.25;;;3.47;;
47555;SDS011;33291;46.222;26.460;2023-07-30T11:10:56;5.13;;;3.40;;
47555;SDS011;33291;46.222;26.460;2023-07-30T11:13:22;6.05;;;3.58;;
47555;SDS011;33291;46.222;26.460;2023-07-30T11:15:47;6.05;;;3.42;;
47555;SDS011;33291;46.222;26.460;2023-07-30T11:18:13;5.80;;;3.42;;
47555;SDS011;33291;46.222;26.460;2023-07-30T11:20:39;10.38;;;3.95;;
47555;SDS011;33291;46.222;26.460;2023-07-30T11:23:26;6.35;;;3.55;;
47555;SDS011;33291;46.222;26.460;2023-07-30T11:25:51;7.45;;;3.95;;
47555;SDS011;33291;46.222;26.460;2023-07-30T11:30:57;5.65;;;3.60;;
47555;SDS011;33291;46.222;26.460;2023-07-30T11:33:37;5.20;;;3.53;;
47555;SDS011;33291;46.222;26.460;2023-07-30T11:36:05;4.68;;;3.33;;
47555;SDS011;33291;46.222;26.460;2023-07-30T11:38:33;4.65;;;3.58;;
47555;SDS011;33291;46.222;26.460;2023-07-30T11:40:59;6.10;;;3.58;;
47555;SDS011;33291;46.222;26.460;2023-07-30T11:43:25;13.60;;;4.38;;
47555;SDS011;33291;46.222;26.460;2023-07-30T11:46:05;6.53;;;3.85;;
47555;SDS011;33291;46.222;26.460;2023-07-30T11:48:41;8.15;;;4.30;;
47555;SDS011;33291;46.222;26.460;2023-07-30T11:53:53;7.68;;;4.15;;
47555;SDS011;33291;46.222;26.460;2023-07-30T11:58:50;9.00;;;3.97;;
47555;SDS011;33291;46.222;26.460;2023-07-30T12:01:18;7.32;;;4.50;;
47555;SDS011;33291;46.222;26.460;2023-07-30T12:03:44;8.32;;;4.05;;
47555;SDS011;33291;46.222;26.460;2023-07-30T12:06:11;5.25;;;3.78;;
47555;SDS011;33291;46.222;26.460;2023-07-30T12:08:37;6.40;;;3.28;;
47555;SDS011;33291;46.222;26.460;2023-07-30T12:11:03;6.40;;;3.92;;
47555;SDS011;33291;46.222;26.460;2023-07-30T12:13:30;3.83;;;3.42;;
47555;SDS011;33291;46.222;26.460;2023-07-30T12:15:55;6.38;;;3.70;;
47555;SDS011;33291;46.222;26.460;2023-07-30T12:18:22;9.77;;;3.67;;
47555;SDS011;33291;46.222;26.460;2023-07-30T12:20:49;4.80;;;3.90;;
47555;SDS011;33291;46.222;26.460;2023-07-30T12:23:18;4.75;;;3.47;;
47555;SDS011;33291;46.222;26.460;2023-07-30T12:25:45;7.95;;;3.47;;
47555;SDS011;33291;46.222;26.460;2023-07-30T12:28:10;7.60;;;3.85;;
47555;SDS011;33291;46.222;26.460;2023-07-30T12:30:36;4.88;;;3.60;;
47555;SDS011;33291;46.222;26.460;2023-07-30T12:33:05;3.60;;;3.10;;
47555;SDS011;33291;46.222;26.460;2023-07-30T12:35:31;7.13;;;3.58;;
47555;SDS011;33291;46.222;26.460;2023-07-30T12:37:57;5.90;;;3.40;;
47555;SDS011;33291;46.222;26.460;2023-07-30T12:40:23;5.07;;;3.45;;
47555;SDS011;33291;46.222;26.460;2023-07-30T12:42:49;5.57;;;3.20;;
47555;SDS011;33291;46.222;26.460;2023-07-30T12:45:14;6.32;;;3.40;;
47555;SDS011;33291;46.222;26.460;2023-07-30T12:47:40;4.05;;;3.47;;
47555;SDS011;33291;46.222;26.460;2023-07-30T12:50:06;8.48;;;3.63;;
47555;SDS011;33291;46.222;26.460;2023-07-30T12:52:32;3.88;;;3.17;;
47555;SDS011;33291;46.222;26.460;2023-07-30T12:54:59;4.40;;;3.30;;
47555;SDS011;33291;46.222;26.460;2023-07-30T12:57:25;5.68;;;3.17;;
47555;SDS011;33291;46.222;26.460;2023-07-30T12:59:51;3.70;;;3.30;;
47555;SDS011;33291;46.222;26.460;2023-07-30T13:02:16;3.75;;;3.05;;
47555;SDS011;33291;46.222;26.460;2023-07-30T13:04:42;5.03;;;3.38;;
47555;SDS011;33291;46.222;26.460;2023-07-30T13:07:07;7.60;;;3.53;;
47555;SDS011;33291;46.222;26.460;2023-07-30T13:09:33;5.28;;;3.92;;
47555;SDS011;33291;46.222;26.460;2023-07-30T13:11:58;5.22;;;3.45;;
47555;SDS011;33291;46.222;26.460;2023-07-30T13:14:24;4.80;;;3.55;;
47555;SDS011;33291;46.222;26.460;2023-07-30T13:16:49;7.28;;;3.90;;
47555;SDS011;33291;46.222;26.460;2023-07-30T13:19:14;4.60;;;3.85;;
47555;SDS011;33291;46.222;26.460;2023-07-30T13:21:40;4.22;;;3.53;;
47555;SDS011;33291;46.222;26.460;2023-07-30T13:24:05;5.78;;;3.55;;
47555;SDS011;33291;46.222;26.460;2023-07-30T13:26:31;4.60;;;3.47;;
47555;SDS011;33291;46.222;26.460;2023-07-30T13:28:56;5.95;;;3.53;;
47555;SDS011;33291;46.222;26.460;2023-07-30T13:31:22;5.07;;;3.42;;
47555;SDS011;33291;46.222;26.460;2023-07-30T13:33:47;4.28;;;3.40;;
47555;SDS011;33291;46.222;26.460;2023-07-30T13:36:14;5.97;;;3.58;;
47555;SDS011;33291;46.222;26.460;2023-07-30T13:38:39;4.90;;;3.80;;
47555;SDS011;33291;46.222;26.460;2023-07-30T13:41:06;8.63;;;3.50;;
47555;SDS011;33291;46.222;26.460;2023-07-30T13:43:32;6.00;;;3.40;;
47555;SDS011;33291;46.222;26.460;2023-07-30T13:45:57;7.43;;;3.15;;
47555;SDS011;33291;46.222;26.460;2023-07-30T13:48:24;6.65;;;3.40;;
47555;SDS011;33291;46.222;26.460;2023-07-30T13:50:50;4.20;;;3.80;;
47555;SDS011;33291;46.222;26.460;2023-07-30T13:53:16;5.05;;;4.10;;
47555;SDS011;33291;46.222;26.460;2023-07-30T13:55:41;6.18;;;3.85;;
47555;SDS011;33291;46.222;26.460;2023-07-30T13:58:07;6.05;;;4.45;;
47555;SDS011;33291;46.222;26.460;2023-07-30T14:00:33;10.05;;;4.13;;
47555;SDS011;33291;46.222;26.460;2023-07-30T14:02:59;6.65;;;4.03;;
47555;SDS011;33291;46.222;26.460;2023-07-30T14:05:25;6.47;;;3.85;;
47555;SDS011;33291;46.222;26.460;2023-07-30T14:07:52;5.65;;;4.38;;
47555;SDS011;33291;46.222;26.460;2023-07-30T14:10:19;9.90;;;4.90;;
47555;SDS011;33291;46.222;26.460;2023-07-30T14:12:44;10.50;;;4.78;;
47555;SDS011;33291;46.222;26.460;2023-07-30T14:15:10;12.50;;;5.15;;
47555;SDS011;33291;46.222;26.460;2023-07-30T14:17:35;7.28;;;5.10;;
47555;SDS011;33291;46.222;26.460;2023-07-30T14:20:01;6.68;;;3.85;;
47555;SDS011;33291;46.222;26.460;2023-07-30T14:22:27;6.65;;;4.82;;
47555;SDS011;33291;46.222;26.460;2023-07-30T14:24:52;6.95;;;4.57;;
47555;SDS011;33291;46.222;26.460;2023-07-30T14:27:18;5.85;;;4.57;;
47555;SDS011;33291;46.222;26.460;2023-07-30T14:29:44;12.07;;;5.05;;
47555;SDS011;33291;46.222;26.460;2023-07-30T14:32:10;8.73;;;5.30;;
47555;SDS011;33291;46.222;26.460;2023-07-30T14:34:35;9.10;;;5.60;;
47555;SDS011;33291;46.222;26.460;2023-07-30T14:37:01;8.18;;;4.90;;
47555;SDS011;33291;46.222;26.460;2023-07-30T14:39:26;7.25;;;4.80;;